Guadalupe Mountains Natl Park, Texas
Current Conditions -  °F | °C
As of 3:53 AM on Tuesday 27 Jan 2015 (Local Time) from KCNM Reporting Station
Clear Clear  
Wind Chill: 36°   Ceiling: Unl
Heat Index: 36°   Visibility: 10mi
Dew Point: 31°   Wind: 3mph
Humidity: 82%   Direction: 290°WNW
Pressure: 30.25"   Gusts: NA
Location:  31.92°N, 104.92°W
Report Text: KCNM 270953Z AUTO 29003KT 10SM CLR 02/M01 A3025 RMK AO2 SLP222 T00221006
Loading
Personal Weather Stations






























Interactive Weather Map New forecast layout! Learn more

10-Day Weather Forecast

Advertisements
Track Severe Weather on mobile